M I D A S
Marine Information and Data Acquisition System
Tripno 1569 of the Zeeleeuw from 2008-09-18 06:54:27 to 2008-09-18 15:29:25
Back to CruiseResearch ActivitiesStationsMapUnderway DataData graphs

EquipmentUnitsComment
TimeDGPSUTC
LatitudeDGPSDM.mWGS84
LongitudeDGPSDM.mWGS84
HeadingGyrodeg 
SOGDGPSknotsSpeed over ground
COGDGPSdegCourse over ground
DepthEcho soundermeters200 kHz
Missing or incorrect values are displayed as -999
Navigation data collected by the RV Zeeleeuw from 2008-09-18 06:54:27 to 2008-09-18 15:29:25
Time Latitude Longitude Heading SOG COG Depth
2008-09-18 06:56:30 51°13.622 2°56.047 117.2 0.1 197 -999
2008-09-18 06:58:30 51°13.667 2°55.882 112 4.7 293 -999
2008-09-18 07:00:30 51°13.698 2°55.739 97.5 2.29 282 -999
2008-09-18 07:02:30 51°13.725 2°55.72 20.5 1.6 11 -999
2008-09-18 07:04:30 51°13.913 2°55.57 334.8 6.2 334 -999
2008-09-18 07:06:30 51°14.099 2°55.426 334.6 6.09 335 -999
2008-09-18 07:08:30 51°14.316 2°55.158 319.6 9.19 315 -999
2008-09-18 07:10:30 51°14.562 2°54.795 328 10.4 325 -999
2008-09-18 07:12:30 51°14.888 2°54.432 331.3 12 326 -999
2008-09-18 07:14:30 51°15.234 2°54.134 339.6 11.8 333 -999
2008-09-18 07:16:30 51°15.587 2°53.84 341 12 333 -999
2008-09-18 07:18:30 51°15.942 2°53.531 338.1 12.19 331 -999
2008-09-18 07:20:30 51°16.287 2°53.185 335.6 12.3 328 -999
2008-09-18 07:22:30 51°16.645 2°52.875 340.3 12.09 333 -999
2008-09-18 07:24:30 51°17.005 2°52.623 343.8 11.8 338 -999
2008-09-18 07:26:30 51°17.384 2°52.486 354 11.69 348 -999
2008-09-18 07:28:30 51°17.766 2°52.441 4 11.5 358 -999
2008-09-18 07:30:30 51°18.145 2°52.5 14.4 11.3 10 -999
2008-09-18 07:32:30 51°18.514 2°52.6 15.9 11.4 10 -999
2008-09-18 07:34:30 51°18.892 2°52.698 15.5 11.4 9 -999
2008-09-18 07:36:30 51°19.254 2°52.855 26 11.19 19 -999
2008-09-18 07:38:30 51°19.601 2°53.065 26.5 11.19 23 -999
2008-09-18 07:40:30 51°19.944 2°53.243 25.5 10.9 16 -999
2008-09-18 07:42:30 51°20.308 2°53.377 22.5 11.19 13 -999
2008-09-18 07:44:30 51°20.66 2°53.541 25.8 11 17 -999
2008-09-18 07:46:30 51°21.015 2°53.694 23.3 11 15 -999
2008-09-18 07:48:30 51°21.374 2°53.85 22.3 11.19 15 -999
2008-09-18 07:50:30 51°21.732 2°54.02 21.8 11.3 15 -999
2008-09-18 07:52:30 51°22.085 2°54.218 26.6 11.19 20 -999
2008-09-18 07:54:30 51°22.434 2°54.428 27.1 11.19 22 -999
2008-09-18 07:56:30 51°22.783 2°54.637 26.8 11.19 21 -999
2008-09-18 07:58:30 51°23.13 2°54.846 28.5 11 22 -999
2008-09-18 08:00:30 51°23.471 2°55.067 29.1 11 24 -999
2008-09-18 08:02:30 51°23.815 2°55.29 26.8 11.19 21 -999
2008-09-18 08:04:30 51°24.154 2°55.504 27 11 21 -999
2008-09-18 08:06:30 51°24.498 2°55.718 26.6 11.09 21 -999
2008-09-18 08:08:30 51°24.839 2°55.949 29 11.09 24 -999
2008-09-18 08:10:30 51°25.18 2°56.164 26.3 10.9 21 -999
2008-09-18 08:12:30 51°25.509 2°56.388 29 10.69 23 -999
2008-09-18 08:14:30 51°25.837 2°56.601 29.6 10.59 25 -999
2008-09-18 08:16:30 51°26.168 2°56.815 25.5 10.8 22 -999
2008-09-18 08:18:30 51°26.505 2°57.003 23.3 10.8 19 -999
2008-09-18 08:20:30 51°26.839 2°57.21 27.1 10.69 21 -999
2008-09-18 08:22:30 51°27.173 2°57.413 26 10.69 22 -999
2008-09-18 08:24:30 51°27.489 2°57.67 31.3 10.59 27 -999
2008-09-18 08:26:30 51°27.799 2°57.927 32 10.5 27 -999
2008-09-18 08:28:30 51°28.106 2°58.195 31.8 10.5 28 -999
2008-09-18 08:30:30 51°28.417 2°58.446 31.6 10.5 27 -999
2008-09-18 08:32:30 51°28.732 2°58.7 31.8 10.59 27 -999
2008-09-18 08:34:30 51°29.009 2°59.025 45.2 10.3 46 -999
2008-09-18 08:36:30 51°29.187 2°59.497 60 10.3 61 -999
2008-09-18 08:38:30 51°29.385 2°59.942 51.1 10.19 48 -999
2008-09-18 08:40:30 51°29.61 3°0.356 48.1 10.3 47 -999
2008-09-18 08:42:30 51°29.844 3°0.75 47 10.19 45 -999
2008-09-18 08:44:30 51°30.099 3°1.111 42.2 10.3 39 -999
2008-09-18 08:46:30 51°30.398 3°1.375 29.3 10.3 30 -999
2008-09-18 08:48:30 51°30.645 3°1.651 39.7 8.09 37 -999
2008-09-18 08:50:30 51°30.701 3°1.698 48.7 0.9 21 -999
2008-09-18 08:52:30 51°30.683 3°1.634 55.5 1.39 246 -999
2008-09-18 08:54:30 51°30.677 3°1.627 63.3 0.29 81 -999
2008-09-18 08:56:30 51°30.675 3°1.627 61.7 0.1 62 -999
2008-09-18 08:58:30 51°30.676 3°1.623 57.5 0.2 262 -999
2008-09-18 09:00:30 51°30.675 3°1.625 61.1 0.1 194 -999
2008-09-18 09:02:30 51°30.675 3°1.627 61.1 0.1 131 -999
2008-09-18 09:04:30 51°30.676 3°1.625 59.5   338 -999
2008-09-18 09:06:30 51°30.676 3°1.624 59.2   254 -999
2008-09-18 09:08:30 51°30.677 3°1.622 58.1 0.1 303 -999
2008-09-18 09:10:30 51°30.679 3°1.621 58.7 0.1 324 -999
2008-09-18 09:12:30 51°30.676 3°1.624 62.8 0.1 139 -999
2008-09-18 09:14:30 51°30.675 3°1.623 60.6   122 -999
2008-09-18 09:16:30 51°30.676 3°1.623 59.5 0.1 326 -999
2008-09-18 09:18:30 51°30.675 3°1.624 60.7   213 -999
2008-09-18 09:20:30 51°30.676 3°1.623 58.5 0.1 305 -999
2008-09-18 09:22:30 51°30.676 3°1.624 59.7 0.1 169 -999
2008-09-18 09:24:30 51°30.677 3°1.624 58.6   44 -999
2008-09-18 09:26:30 51°30.678 3°1.624 57 0.1 24 -999
2008-09-18 09:28:30 51°30.676 3°1.625 59.3   120 -999
2008-09-18 09:30:30 51°30.677 3°1.625 57.2 0.1 330 -999
2008-09-18 09:32:30 51°30.675 3°1.625 59.1 0.1 188 -999
2008-09-18 09:34:30 51°30.675 3°1.626 58.7   339 -999
2008-09-18 09:36:30 51°30.675 3°1.626 57.6 0.1 112 -999
2008-09-18 09:38:30 51°30.675 3°1.626 58   214 -999
2008-09-18 09:40:30 51°30.677 3°1.624 56.7   315 -999
2008-09-18 09:42:30 51°30.676 3°1.625 56.6   104 -999
2008-09-18 09:44:30 51°30.675 3°1.625 58.3   70 -999
2008-09-18 09:46:30 51°30.677 3°1.634 59.2 0.29 75 -999
2008-09-18 09:48:30 51°30.689 3°1.676 59.2 0.9 64 -999
2008-09-18 09:50:30 51°30.697 3°1.687 47.8 0.2 293 -999
2008-09-18 09:52:30 51°30.745 3°1.605 11.4 3.5 330 -999
2008-09-18 09:54:30 51°31.008 3°1.194 327.3 12.09 318 -999
2008-09-18 09:56:30 51°31.315 3°0.783 329.8 12.09 320 -999
2008-09-18 09:58:30 51°31.62 3°0.358 326.6 12.09 318 -999
2008-09-18 10:00:30 51°31.919 2°59.928 326.6 12.09 319 -999
2008-09-18 10:02:30 51°32.12 2°59.8 20.8 4.7 11 -999
2008-09-18 10:04:30 51°32.167 2°59.769 6.7 1.6 259 -999
2008-09-18 10:06:30 51°32.153 2°59.727 35.7 0.4 170 -999
2008-09-18 10:08:30 51°32.149 2°59.733 54.1 0.2 222 -999
2008-09-18 10:10:30 51°32.147 2°59.737 54.1 0.2 98 -999
2008-09-18 10:12:30 51°32.147 2°59.734 50.3 0.1 321 -999
2008-09-18 10:14:30 51°32.149 2°59.732 51.7   328 -999
2008-09-18 10:16:30 51°32.15 2°59.731 53.6 0.1 325 -999
2008-09-18 10:18:30 51°32.148 2°59.733 57.1 0.1 139 -999
2008-09-18 10:20:30 51°32.147 2°59.734 52.7   355 -999
2008-09-18 10:22:30 51°32.148 2°59.732 51.2 0.1 328 -999
2008-09-18 10:24:30 51°32.146 2°59.736 51.7   108 -999
2008-09-18 10:26:30 51°32.144 2°59.738 53.7 0.1 144 -999
2008-09-18 10:28:30 51°32.144 2°59.738 50.2   284 -999
2008-09-18 10:30:30 51°32.144 2°59.738 50.7   356 -999
2008-09-18 10:32:30 51°32.145 2°59.736 48.2 0.1 19 -999
2008-09-18 10:34:30 51°32.145 2°59.733 48.8 0.1 358 -999
2008-09-18 10:36:30 51°32.146 2°59.733 49.2   37 -999
2008-09-18 10:38:30 51°32.145 2°59.735 52.2 0.1 138 -999
2008-09-18 10:40:30 51°32.144 2°59.738 50.2 0.1 349 -999
2008-09-18 10:42:30 51°32.144 2°59.737 48.2   95 -999
2008-09-18 10:44:30 51°32.145 2°59.737 48.2 0.1 333 -999
2008-09-18 10:46:30 51°32.146 2°59.733 48 0.1 307 -999
2008-09-18 10:48:30 51°32.146 2°59.734 50.6 0.1 146 -999
2008-09-18 10:50:30 51°32.145 2°59.736 51 0.1 123 -999
2008-09-18 10:52:30 51°32.146 2°59.735 47.2 0.1 26 -999
2008-09-18 10:54:30 51°32.145 2°59.735 48.8   159 -999
2008-09-18 10:56:30 51°32.145 2°59.738 48.5 0.1 346 -999
2008-09-18 10:58:30 51°32.144 2°59.741 48.8   94 -999
2008-09-18 11:00:30 51°32.15 2°59.749 44.8 0.5 51 -999
2008-09-18 11:02:30 51°32.158 2°59.762 45.6 0.1 64 -999
2008-09-18 11:04:30 51°32.165 2°59.78 46.7 0.2 63 -999
2008-09-18 11:06:30 51°32.152 2°59.751 40 0.9 231 -999
2008-09-18 11:08:30 51°32.27 2°59.661 352.3 7 342 -999
2008-09-18 11:10:30 51°32.584 2°59.336 329.8 11.69 322 -999
2008-09-18 11:12:30 51°32.863 2°58.903 320.1 11.59 311 -999
2008-09-18 11:14:30 51°33.069 2°58.387 306.8 11.69 300 -999
2008-09-18 11:16:30 51°33.253 2°57.865 306 11.9 298 -999
2008-09-18 11:18:30 51°33.317 2°57.747 0.5 1.69 336 -999
2008-09-18 11:20:30 51°33.302 2°57.714 28.6 0.8 226 -999
2008-09-18 11:22:30 51°33.288 2°57.693 32.5 0.4 219 -999
2008-09-18 11:24:30 51°33.289 2°57.698 37.3 0.1 205 -999
2008-09-18 11:26:30 51°33.29 2°57.698 36 0.2 36 -999
2008-09-18 11:28:30 51°33.289 2°57.695 36.2 0.1 208 -999
2008-09-18 11:30:30 51°33.29 2°57.697 37.3 0.1 84 -999
2008-09-18 11:32:30 51°33.288 2°57.698 37.2 0.1 130 -999
2008-09-18 11:34:30 51°33.288 2°57.7 36.2 0.1 144 -999
2008-09-18 11:36:30 51°33.288 2°57.698 32 0.1 315 -999
2008-09-18 11:38:30 51°33.289 2°57.697 32.7 0.1 273 -999
2008-09-18 11:40:30 51°33.288 2°57.698 35.2 0.1 132 -999
2008-09-18 11:42:30 51°33.289 2°57.697 31.3 0.1 36 -999
2008-09-18 11:44:30 51°33.289 2°57.695 32.6   258 -999
2008-09-18 11:46:30 51°33.289 2°57.695 33.8 0.1 58 -999
2008-09-18 11:48:30 51°33.288 2°57.695 32.6 0.1 220 -999
2008-09-18 11:50:30 51°33.291 2°57.693 30.3 0.1 1 -999
2008-09-18 11:52:30 51°33.288 2°57.696 35.7 0.2 137 -999
2008-09-18 11:54:30 51°33.286 2°57.703 35.5 0.1 103 -999
2008-09-18 11:56:30 51°33.287 2°57.698 27.1 0.1 268 -999
2008-09-18 11:58:30 51°33.288 2°57.701 30   237 -999
2008-09-18 13:00:30 51°33.967 2°54.713 352.1 0.1 78 -999
2008-09-18 13:02:30 51°33.967 2°54.721 346.1 0.2 92 -999
2008-09-18 13:04:30 51°33.967 2°54.728 346 0.2 114 -999
2008-09-18 13:06:30 51°33.968 2°54.738 346.6 0.2 66 -999
2008-09-18 13:08:30 51°33.973 2°54.747 343.6 0.2 54 -999
2008-09-18 13:10:30 51°33.979 2°54.757 334.3 0.29 47 -999
2008-09-18 13:12:30 51°33.986 2°54.765 325.3 0.29 31 -999
2008-09-18 13:14:30 51°33.996 2°54.772 330 0.4 26 -999
2008-09-18 13:16:30 51°34.002 2°54.781 322.3 0.2 43 -999
2008-09-18 13:18:30 51°34.009 2°54.781 307.1 0.29 342 -999
2008-09-18 13:20:30 51°34.017 2°54.779 303 0.2 359 -999
2008-09-18 13:22:30 51°34.023 2°54.78 297.3 0.1 18 -999
2008-09-18 13:24:30 51°34.026 2°54.778 285.1 0.1 293 -999
2008-09-18 13:26:30 51°34.028 2°54.767 274.3 0.29 295 -999
2008-09-18 13:28:30 51°34.025 2°54.756 259 0.29 222 -999
2008-09-18 13:30:30 51°34.008 2°54.731 237.1 0.59 207 -999
2008-09-18 13:32:30 51°33.994 2°54.744 209.3 0.5 136 -999
2008-09-18 13:34:30 51°33.972 2°54.77 189.3 0.9 140 -999
2008-09-18 13:36:30 51°33.947 2°54.819 169 1.3 125 -999
2008-09-18 13:38:30 51°33.715 2°54.735 198.9 10 195 -999
2008-09-18 13:40:30 51°33.361 2°54.574 198.6 11 195 -999
2008-09-18 13:42:30 51°33.021 2°54.374 205.5 10.9 202 -999
2008-09-18 13:44:30 51°32.663 2°54.338 175.5 11.3 168 -999
2008-09-18 13:46:30 51°32.289 2°54.349 184 11.19 181 -999
2008-09-18 13:48:30 51°31.918 2°54.323 187 11.09 181 -999
2008-09-18 13:50:30 51°31.547 2°54.308 185.8 11.09 181 -999
2008-09-18 13:52:30 51°31.179 2°54.284 185.8 11.19 180 -999
2008-09-18 13:54:30 51°30.813 2°54.267 185 10.9 184 -999
2008-09-18 13:56:30 51°30.444 2°54.245 187.1 11.09 183 -999
2008-09-18 13:58:30 51°30.072 2°54.235 185.6 11.09 181 -999
2008-09-18 14:00:30 51°29.71 2°54.222 186.4 11 179 -999
2008-09-18 14:02:30 51°29.354 2°54.199 187 10.8 183 -999
2008-09-18 14:04:30 51°28.998 2°54.352 168 11.3 164 -999
2008-09-18 14:06:30 51°28.66 2°54.65 154 11.8 150 -999
2008-09-18 14:08:30 51°28.32 2°54.943 156.5 11.59 152 -999
2008-09-18 14:10:30 51°27.964 2°55.135 166.6 11.3 164 -999
2008-09-18 14:12:30 51°27.604 2°55.182 182.8 10.8 181 -999
2008-09-18 14:14:30 51°27.25 2°55.095 191 10.69 188 -999
2008-09-18 14:16:30 51°26.895 2°55.042 188 10.69 184 -999
2008-09-18 14:18:30 51°26.545 2°54.99 187.9 10.59 186 -999
2008-09-18 14:20:30 51°26.191 2°54.938 187.5 10.69 186 -999
2008-09-18 14:22:30 51°25.834 2°54.879 187 10.69 187 -999
2008-09-18 14:24:30 51°25.473 2°54.82 187.6 10.8 185 -999
2008-09-18 14:26:30 51°25.11 2°54.751 188 11 188 -999
2008-09-18 14:28:30 51°24.748 2°54.69 187.9 10.8 186 -999
2008-09-18 14:30:30 51°24.389 2°54.633 188.8 10.69 185 -999
2008-09-18 14:32:30 51°24.037 2°54.569 189.5 10.69 187 -999
2008-09-18 14:34:30 51°23.685 2°54.488 190.9 10.69 188 -999
2008-09-18 14:36:30 51°23.341 2°54.413 190.5 10.5 186 -999
2008-09-18 14:38:30 51°22.998 2°54.342 191.6 10.4 187 -999
2008-09-18 14:40:30 51°22.655 2°54.27 191.4 10.3 187 -999
2008-09-18 14:42:30 51°22.308 2°54.172 193 10.59 189 -999
2008-09-18 14:44:30 51°21.958 2°54.07 193.5 10.8 191 -999
2008-09-18 14:46:30 51°21.604 2°53.951 195 10.8 194 -999
2008-09-18 14:48:30 51°21.247 2°53.831 194.5 11 192 -999
2008-09-18 14:50:30 51°20.889 2°53.711 193.4 11 192 -999
2008-09-18 14:52:30 51°20.536 2°53.591 195 10.8 193 -999
2008-09-18 14:54:30 51°20.193 2°53.469 195 10.5 192 -999
2008-09-18 14:56:30 51°19.851 2°53.329 198.4 10.69 197 -999
2008-09-18 14:58:30 51°19.508 2°53.184 196.5 10.69 195 -999
2008-09-18 15:00:30 51°19.167 2°53.036 197 10.59 194 -999
2008-09-18 15:02:30 51°18.822 2°52.871 197.3 10.9 197 -999
2008-09-18 15:04:30 51°18.474 2°52.711 198.1 10.69 197 -999
2008-09-18 15:06:30 51°18.13 2°52.551 197.3 10.8 196 -999
2008-09-18 15:08:30 51°17.78 2°52.427 192.3 10.8 191 -999
2008-09-18 15:10:30 51°17.422 2°52.347 191.5 10.9 185 -999
2008-09-18 15:12:30 51°17.056 2°52.356 180 11.09 176 -999
2008-09-18 15:14:30 51°16.697 2°52.513 164.6 11.3 161 -999
2008-09-18 15:16:30 51°16.354 2°52.767 159.9 11.5 156 -999
2008-09-18 15:18:30 51°16.003 2°53.017 160.9 11.5 157 -999
2008-09-18 15:20:30 51°15.662 2°53.291 156.3 11.69 151 -999
2008-09-18 15:22:30 51°15.333 2°53.626 151.1 11.59 148 -999
2008-09-18 15:24:30 51°15.02 2°53.99 147 11.8 144 -999
2008-09-18 15:26:30 51°14.722 2°54.395 143.5 11.69 141 -999
2008-09-18 15:28:30 51°14.451 2°54.851 134.4 12 132 -999